Terminal Aerodrome Forecast
Issued by NWS

Home | Current Version | Previous Version | Text Only | Print | Product List | Glossary On
Versions: 1 2 3 4 5 6 7 8 9 10 11 12 13 14 15 16 17 18 19 20 21
000
FTUS41 KPBZ 290103 AAB
TAFZZV
TAF AMD
KZZV 290103Z 2901/2924 32010KT 5SM -RA BR OVC050
     FM290200 02005KT 3SM -RA BR OVC008
     FM291800 36003KT P6SM BKN015=

USA.gov is the U.S. government's official web portal to all federal, state and local government web resources and services.